Time;durP1;ratioP1;P1;durP2;ratioP2;P2;SDS_P1;SDS_P2;PMS_P1;PMS_P2;Temp;Humidity;BMP_temperature;BMP_pressure;BME280_temperature;BME280_humidity;BME280_pressure;Samples;Min_cycle;Max_cycle;Signal;HPM_P1;HPM_P2
2024/02/11 00:01:08;;;;;;;18.55;11.82;;;;;;;;;;5022087;28;20021;-82
2024/02/11 00:03:34;;;;;;;16.92;11.88;;;;;;;;;;5009133;28;20118;-82
2024/02/11 00:06:01;;;;;;;16.50;12.70;;;;;;;;;;5024757;28;20083;-83
2024/02/11 00:08:27;;;;;;;15.15;11.82;;;;;;;;;;5027159;28;20036;-83
2024/02/11 00:10:53;;;;;;;14.48;11.48;;;;;;;;;;5024225;28;20034;-83
2024/02/11 00:13:20;;;;;;;18.08;11.60;;;;;;;;;;5021921;28;20113;-82
2024/02/11 00:15:45;;;;;;;16.10;12.23;;;;;;;;;;5026944;28;20025;-83
2024/02/11 00:18:11;;;;;;;16.35;12.27;;;;;;;;;;5023059;28;20396;-82
2024/02/11 00:20:40;;;;;;;17.92;13.35;;;;;;;;;;5020732;28;20392;-83
2024/02/11 00:23:06;;;;;;;19.73;14.13;;;;;;;;;;5026110;28;20026;-82
2024/02/11 00:25:31;;;;;;;19.48;13.35;;;;;;;;;;5027557;28;20081;-82
2024/02/11 00:27:59;;;;;;;19.23;14.15;;;;;;;;;;5020821;28;20025;-82
2024/02/11 00:30:25;;;;;;;19.40;14.40;;;;;;;;;;5025380;28;20041;-82
2024/02/11 00:32:56;;;;;;;18.10;13.45;;;;;;;;;;5021062;28;20030;-82
2024/02/11 00:35:23;;;;;;;17.98;13.70;;;;;;;;;;5025115;28;20025;-81
2024/02/11 00:37:48;;;;;;;17.95;13.85;;;;;;;;;;5025527;28;20037;-82
2024/02/11 00:40:14;;;;;;;17.13;13.95;;;;;;;;;;5025250;28;20025;-82
2024/02/11 00:42:40;;;;;;;19.95;15.10;;;;;;;;;;5026691;28;20080;-82
2024/02/11 00:45:05;;;;;;;18.77;14.25;;;;;;;;;;5026960;28;20033;-82
2024/02/11 00:47:31;;;;;;;18.45;13.43;;;;;;;;;;5034618;28;20024;-82
2024/02/11 00:49:56;;;;;;;19.00;14.20;;;;;;;;;;5030691;28;20052;-82
2024/02/11 00:52:22;;;;;;;19.45;13.70;;;;;;;;;;5031703;28;20089;-82
2024/02/11 00:54:47;;;;;;;18.50;14.10;;;;;;;;;;5024713;28;20043;-82
2024/02/11 00:57:12;;;;;;;18.98;14.68;;;;;;;;;;5023147;28;20026;-82
2024/02/11 00:59:41;;;;;;;17.77;14.00;;;;;;;;;;5031866;28;20071;-82
2024/02/11 01:02:07;;;;;;;19.48;14.05;;;;;;;;;;5025965;28;20032;-82
2024/02/11 01:04:32;;;;;;;18.77;13.77;;;;;;;;;;5035181;28;20029;-82
2024/02/11 01:06:58;;;;;;;18.67;14.07;;;;;;;;;;5044714;28;20071;-82
2024/02/11 01:09:26;;;;;;;18.77;13.75;;;;;;;;;;5023459;28;20026;-82
2024/02/11 01:11:51;;;;;;;18.27;14.02;;;;;;;;;;5037071;28;20053;-82
2024/02/11 01:14:18;;;;;;;19.38;14.48;;;;;;;;;;5032291;28;20119;-83
2024/02/11 01:16:44;;;;;;;18.52;14.18;;;;;;;;;;5033591;28;20030;-82
2024/02/11 01:19:11;;;;;;;18.25;13.95;;;;;;;;;;5030073;28;20037;-82
2024/02/11 01:21:36;;;;;;;19.10;13.98;;;;;;;;;;5031150;28;20504;-82
2024/02/11 01:24:01;;;;;;;19.67;13.55;;;;;;;;;;5025626;28;20022;-81
2024/02/11 01:26:27;;;;;;;19.20;13.73;;;;;;;;;;5030947;28;20026;-82
2024/02/11 01:28:52;;;;;;;19.92;14.13;;;;;;;;;;5028086;28;20496;-82
2024/02/11 01:31:18;;;;;;;18.80;13.80;;;;;;;;;;5029659;28;20028;-82
2024/02/11 01:33:43;;;;;;;20.33;13.35;;;;;;;;;;5024716;28;20082;-82
2024/02/11 01:36:11;;;;;;;19.25;13.73;;;;;;;;;;5041978;28;20029;-82
2024/02/11 01:38:38;;;;;;;18.10;13.73;;;;;;;;;;5038154;28;20029;-82
2024/02/11 01:41:04;;;;;;;18.35;13.35;;;;;;;;;;5041217;28;20120;-82
2024/02/11 01:43:29;;;;;;;17.75;13.02;;;;;;;;;;5029280;28;20125;-83
2024/02/11 01:45:56;;;;;;;17.65;13.30;;;;;;;;;;5031563;28;20029;-86
2024/02/11 01:48:23;;;;;;;18.30;13.70;;;;;;;;;;5031521;28;20036;-86
2024/02/11 01:50:52;;;;;;;18.38;14.05;;;;;;;;;;5028363;28;20052;-85
2024/02/11 01:53:20;;;;;;;17.17;13.18;;;;;;;;;;5029972;28;20374;-85
2024/02/11 01:55:46;;;;;;;17.38;12.98;;;;;;;;;;5023669;28;20104;-85
2024/02/11 01:58:14;;;;;;;17.95;13.10;;;;;;;;;;5033468;28;20160;-85
2024/02/11 02:00:41;;;;;;;18.65;13.63;;;;;;;;;;5026600;28;20104;-85
2024/02/11 02:03:07;;;;;;;19.20;13.82;;;;;;;;;;5035672;28;20032;-86
2024/02/11 02:05:33;;;;;;;18.65;13.93;;;;;;;;;;5030357;28;20032;-85
2024/02/11 02:07:59;;;;;;;18.88;13.98;;;;;;;;;;5036586;28;20377;-85
2024/02/11 02:10:25;;;;;;;19.17;13.27;;;;;;;;;;5033848;28;20029;-86
2024/02/11 02:12:50;;;;;;;17.85;13.25;;;;;;;;;;5035727;28;20064;-85
2024/02/11 02:15:17;;;;;;;17.90;13.48;;;;;;;;;;5016512;28;20033;-85
2024/02/11 02:17:46;;;;;;;16.80;13.40;;;;;;;;;;5036225;28;20021;-85
2024/02/11 02:20:14;;;;;;;18.02;13.45;;;;;;;;;;5035043;28;20034;-85
2024/02/11 02:22:41;;;;;;;17.50;13.15;;;;;;;;;;5034463;28;20017;-86
2024/02/11 02:25:07;;;;;;;18.38;13.55;;;;;;;;;;5028816;28;20087;-86
2024/02/11 02:27:32;;;;;;;17.05;13.60;;;;;;;;;;5033137;28;20440;-85
2024/02/11 02:29:58;;;;;;;18.35;13.95;;;;;;;;;;5015457;28;20065;-86
2024/02/11 02:32:23;;;;;;;18.88;13.52;;;;;;;;;;5043148;28;20572;-85
2024/02/11 02:34:50;;;;;;;19.15;14.02;;;;;;;;;;5037975;28;20034;-86
2024/02/11 02:37:16;;;;;;;20.35;14.40;;;;;;;;;;5032255;28;20072;-85
2024/02/11 02:39:41;;;;;;;18.38;13.80;;;;;;;;;;5031777;28;20025;-85
2024/02/11 02:42:07;;;;;;;18.83;13.98;;;;;;;;;;5027534;28;20030;-85
2024/02/11 02:44:32;;;;;;;18.40;14.43;;;;;;;;;;5031620;28;20021;-86
2024/02/11 02:46:58;;;;;;;19.73;15.02;;;;;;;;;;5031452;28;20112;-85
2024/02/11 02:49:24;;;;;;;18.73;14.10;;;;;;;;;;5033504;28;20041;-85
2024/02/11 02:51:49;;;;;;;20.02;14.90;;;;;;;;;;5029178;28;20509;-86
2024/02/11 02:54:14;;;;;;;18.48;14.82;;;;;;;;;;5033438;28;20021;-85
2024/02/11 02:56:40;;;;;;;19.58;14.38;;;;;;;;;;5041671;28;20021;-82
2024/02/11 02:59:08;;;;;;;19.67;14.27;;;;;;;;;;5030938;28;20034;-82
2024/02/11 03:01:35;;;;;;;18.90;14.95;;;;;;;;;;5036831;28;20533;-82
2024/02/11 03:04:02;;;;;;;19.80;14.38;;;;;;;;;;5039758;28;20119;-83
2024/02/11 03:06:28;;;;;;;22.83;14.60;;;;;;;;;;5025374;28;20029;-82
2024/02/11 03:08:54;;;;;;;20.52;15.13;;;;;;;;;;5035181;28;20025;-83
2024/02/11 03:11:20;;;;;;;18.90;14.93;;;;;;;;;;5032058;28;20117;-82
2024/02/11 03:13:45;;;;;;;19.25;14.15;;;;;;;;;;5037543;28;20397;-82
2024/02/11 03:16:11;;;;;;;16.42;13.75;;;;;;;;;;5032742;28;20036;-82
2024/02/11 03:18:37;;;;;;;21.67;14.60;;;;;;;;;;5035915;28;20033;-83
2024/02/11 03:21:02;;;;;;;17.38;14.48;;;;;;;;;;5032048;28;20366;-83
2024/02/11 03:23:28;;;;;;;18.80;14.77;;;;;;;;;;5036461;28;20017;-82
2024/02/11 03:25:53;;;;;;;18.48;14.10;;;;;;;;;;5030478;28;20508;-82
2024/02/11 03:28:19;;;;;;;18.05;14.07;;;;;;;;;;5034706;28;20087;-82
2024/02/11 03:30:44;;;;;;;17.98;13.77;;;;;;;;;;5026257;28;20358;-82
2024/02/11 03:33:10;;;;;;;18.08;13.63;;;;;;;;;;5031562;28;20400;-82
2024/02/11 03:35:35;;;;;;;18.08;14.15;;;;;;;;;;5027860;28;20564;-82
2024/02/11 03:38:01;;;;;;;19.23;15.35;;;;;;;;;;5029321;28;20021;-82
2024/02/11 03:40:27;;;;;;;19.25;14.23;;;;;;;;;;5037702;28;20056;-82
2024/02/11 03:42:53;;;;;;;20.02;14.02;;;;;;;;;;5034604;28;20029;-82
2024/02/11 03:45:19;;;;;;;19.63;14.13;;;;;;;;;;5033146;28;20025;-82
2024/02/11 03:47:45;;;;;;;19.25;14.23;;;;;;;;;;5025295;28;20415;-82
2024/02/11 03:50:13;;;;;;;18.23;13.98;;;;;;;;;;5028857;28;20022;-82
2024/02/11 03:52:39;;;;;;;18.40;13.60;;;;;;;;;;5028515;28;20610;-82
2024/02/11 03:55:06;;;;;;;18.25;14.00;;;;;;;;;;5031928;28;20134;-82
2024/02/11 03:57:31;;;;;;;18.85;14.23;;;;;;;;;;5034060;28;20029;-82
2024/02/11 03:59:57;;;;;;;17.65;13.70;;;;;;;;;;5030433;28;20033;-82
2024/02/11 04:02:23;;;;;;;18.48;13.30;;;;;;;;;;5027964;28;20025;-81
2024/02/11 04:04:49;;;;;;;18.10;13.00;;;;;;;;;;5028338;28;20032;-82
2024/02/11 04:07:15;;;;;;;19.42;14.63;;;;;;;;;;5030034;28;20020;-82
2024/02/11 04:09:41;;;;;;;18.30;13.80;;;;;;;;;;5029576;28;20048;-82
2024/02/11 04:12:10;;;;;;;19.33;13.57;;;;;;;;;;5027103;28;20470;-82
2024/02/11 04:14:41;;;;;;;17.45;13.88;;;;;;;;;;5024707;28;20021;-82
2024/02/11 04:17:13;;;;;;;17.60;12.82;;;;;;;;;;5033916;28;20061;-83
2024/02/11 04:19:44;;;;;;;18.00;13.70;;;;;;;;;;5034403;28;20025;-82
2024/02/11 04:22:14;;;;;;;18.38;14.15;;;;;;;;;;5030081;28;20462;-82
2024/02/11 04:24:45;;;;;;;17.25;13.65;;;;;;;;;;5014421;28;20419;-82
2024/02/11 04:27:14;;;;;;;16.67;12.82;;;;;;;;;;5030854;28;20440;-82
2024/02/11 04:29:43;;;;;;;18.27;13.32;;;;;;;;;;5023389;28;20041;-82
2024/02/11 04:32:11;;;;;;;17.75;13.40;;;;;;;;;;5033085;28;20025;-83
2024/02/11 04:34:41;;;;;;;20.58;13.95;;;;;;;;;;5034033;28;20087;-82
2024/02/11 04:37:07;;;;;;;18.73;14.40;;;;;;;;;;5033780;28;20504;-82
2024/02/11 04:39:32;;;;;;;16.85;13.15;;;;;;;;;;5034016;28;20026;-82
2024/02/11 04:41:58;;;;;;;18.60;13.77;;;;;;;;;;5038452;28;20357;-82
2024/02/11 04:44:26;;;;;;;19.08;13.70;;;;;;;;;;5027097;28;20143;-83
2024/02/11 04:46:51;;;;;;;17.75;13.30;;;;;;;;;;5031916;28;20056;-82
2024/02/11 04:49:17;;;;;;;18.60;13.55;;;;;;;;;;5023403;28;20057;-82
2024/02/11 04:51:42;;;;;;;19.88;13.85;;;;;;;;;;5028935;28;20374;-82
2024/02/11 04:54:08;;;;;;;16.92;13.75;;;;;;;;;;5027256;28;20150;-82
2024/02/11 04:56:34;;;;;;;17.73;13.65;;;;;;;;;;5023201;28;20025;-82
2024/02/11 04:59:01;;;;;;;16.45;12.85;;;;;;;;;;5028819;28;20484;-82
2024/02/11 05:01:27;;;;;;;20.52;14.35;;;;;;;;;;5026996;28;20113;-82
2024/02/11 05:03:53;;;;;;;20.90;15.18;;;;;;;;;;5030592;28;20619;-82
2024/02/11 05:06:23;;;;;;;19.70;13.95;;;;;;;;;;5027471;28;20025;-82
2024/02/11 05:08:49;;;;;;;20.30;14.60;;;;;;;;;;5026558;28;20025;-82
2024/02/11 05:11:15;;;;;;;20.67;15.35;;;;;;;;;;5033646;28;20037;-82
2024/02/11 05:13:43;;;;;;;18.88;14.10;;;;;;;;;;5018108;28;20029;-82
2024/02/11 05:16:14;;;;;;;17.65;14.60;;;;;;;;;;5043836;28;20025;-82
2024/02/11 05:18:42;;;;;;;21.00;15.95;;;;;;;;;;5034687;28;20083;-82
2024/02/11 05:21:10;;;;;;;20.60;14.60;;;;;;;;;;5036725;28;20025;-82
2024/02/11 05:23:36;;;;;;;21.17;15.15;;;;;;;;;;5030052;28;20033;-82
2024/02/11 05:26:05;;;;;;;20.98;14.68;;;;;;;;;;5032060;28;20481;-82
2024/02/11 05:28:34;;;;;;;21.10;15.38;;;;;;;;;;5025042;28;20280;-82
2024/02/11 05:31:01;;;;;;;21.42;15.50;;;;;;;;;;5035572;28;20101;-82
2024/02/11 05:33:26;;;;;;;19.52;14.48;;;;;;;;;;5034063;28;20079;-82
2024/02/11 05:35:52;;;;;;;18.55;14.52;;;;;;;;;;5031242;28;20033;-82
2024/02/11 05:38:24;;;;;;;19.60;14.73;;;;;;;;;;5026038;28;20110;-82
2024/02/11 05:40:50;;;;;;;18.60;13.98;;;;;;;;;;5036825;28;20542;-82
2024/02/11 05:43:16;;;;;;;17.65;13.38;;;;;;;;;;5038535;28;20034;-82
2024/02/11 05:45:43;;;;;;;16.92;13.80;;;;;;;;;;5028106;28;20084;-82
2024/02/11 05:48:09;;;;;;;14.20;11.02;;;;;;;;;;5030422;28;20032;-82
2024/02/11 05:50:35;;;;;;;12.98;9.02;;;;;;;;;;5034270;28;20030;-82
2024/02/11 05:53:00;;;;;;;9.00;6.25;;;;;;;;;;5035723;28;20025;-82
2024/02/11 05:55:26;;;;;;;8.95;6.15;;;;;;;;;;5033682;28;20522;-82
2024/02/11 05:57:53;;;;;;;9.15;6.22;;;;;;;;;;5031569;28;20032;-82
2024/02/11 06:00:36;;;;;;;9.45;6.22;;;;;;;;;;5035517;28;20029;-82
2024/02/11 06:03:02;;;;;;;9.40;6.25;;;;;;;;;;5029848;28;20108;-82
2024/02/11 06:05:27;;;;;;;9.77;5.80;;;;;;;;;;5040703;28;20148;-82
2024/02/11 06:07:55;;;;;;;7.90;5.13;;;;;;;;;;5033673;28;20423;-82
2024/02/11 06:10:25;;;;;;;9.82;5.88;;;;;;;;;;5028790;28;20040;-82
2024/02/11 06:12:51;;;;;;;9.90;6.45;;;;;;;;;;5034529;28;20443;-82
2024/02/11 06:15:20;;;;;;;10.65;6.70;;;;;;;;;;5035374;28;20285;-82
2024/02/11 06:17:57;;;;;;;11.05;7.22;;;;;;;;;;5039001;28;20036;-82
2024/02/11 06:20:23;;;;;;;11.52;7.00;;;;;;;;;;5032074;28;20018;-82
2024/02/11 06:22:50;;;;;;;12.48;7.07;;;;;;;;;;5038799;28;20045;-82
2024/02/11 06:25:16;;;;;;;13.52;7.70;;;;;;;;;;5036001;28;20080;-82
2024/02/11 06:27:42;;;;;;;13.40;7.40;;;;;;;;;;5034481;28;20071;-82
2024/02/11 06:30:12;;;;;;;14.77;7.22;;;;;;;;;;5029260;28;20369;-82
2024/02/11 06:32:42;;;;;;;12.70;7.20;;;;;;;;;;5038590;28;20475;-82
2024/02/11 06:35:09;;;;;;;12.30;6.82;;;;;;;;;;5032975;28;20037;-82
2024/02/11 06:37:39;;;;;;;14.80;7.40;;;;;;;;;;5023637;28;20027;-82
2024/02/11 06:40:10;;;;;;;14.18;7.28;;;;;;;;;;5030777;28;20041;-85
2024/02/11 06:42:36;;;;;;;16.08;8.05;;;;;;;;;;5028943;28;20381;-86
2024/02/11 06:45:02;;;;;;;16.52;7.80;;;;;;;;;;5032997;28;20126;-85
2024/02/11 06:47:28;;;;;;;15.20;7.38;;;;;;;;;;5026650;28;20485;-85
2024/02/11 06:49:54;;;;;;;14.23;7.60;;;;;;;;;;5036862;28;20032;-85
2024/02/11 06:52:19;;;;;;;16.23;7.35;;;;;;;;;;5028799;28;20029;-85
2024/02/11 06:54:47;;;;;;;14.40;7.20;;;;;;;;;;5016338;28;20029;-86
2024/02/11 06:57:14;;;;;;;14.43;7.40;;;;;;;;;;5039504;28;20074;-85
2024/02/11 06:59:39;;;;;;;13.70;6.57;;;;;;;;;;5030506;28;20582;-86
2024/02/11 07:02:06;;;;;;;14.20;6.32;;;;;;;;;;5038316;28;20059;-86
2024/02/11 07:04:34;;;;;;;13.18;5.90;;;;;;;;;;5032923;28;20056;-85
2024/02/11 07:07:03;;;;;;;16.00;6.05;;;;;;;;;;5040112;28;20048;-86
2024/02/11 07:09:29;;;;;;;13.13;5.43;;;;;;;;;;5035673;28;20029;-85
2024/02/11 07:11:55;;;;;;;10.57;5.20;;;;;;;;;;5027210;28;20044;-86
2024/02/11 07:14:21;;;;;;;11.55;5.13;;;;;;;;;;5030771;28;20035;-86
2024/02/11 07:16:48;;;;;;;11.32;4.82;;;;;;;;;;5035242;28;20273;-85
2024/02/11 07:19:14;;;;;;;12.18;5.82;;;;;;;;;;5030331;28;20025;-86
2024/02/11 07:21:41;;;;;;;14.05;6.60;;;;;;;;;;5033387;28;20023;-85
2024/02/11 07:24:07;;;;;;;15.95;6.28;;;;;;;;;;5028582;28;20060;-86
2024/02/11 07:26:36;;;;;;;13.77;6.47;;;;;;;;;;5030570;28;20017;-85
2024/02/11 07:29:03;;;;;;;13.18;6.60;;;;;;;;;;5018529;28;20523;-86
2024/02/11 07:31:35;;;;;;;14.82;7.28;;;;;;;;;;5012824;28;20041;-85
2024/02/11 07:34:01;;;;;;;14.90;7.20;;;;;;;;;;5033003;28;20079;-86
2024/02/11 07:36:27;;;;;;;16.50;8.07;;;;;;;;;;5025458;28;20405;-86
2024/02/11 07:38:54;;;;;;;17.08;8.00;;;;;;;;;;5038193;28;20387;-85
2024/02/11 07:41:19;;;;;;;17.08;8.23;;;;;;;;;;5028457;28;20033;-86
2024/02/11 07:43:46;;;;;;;18.70;9.35;;;;;;;;;;5016856;28;20489;-86
2024/02/11 07:46:16;;;;;;;21.98;9.32;;;;;;;;;;5026310;28;20558;-85
2024/02/11 07:48:42;;;;;;;19.23;9.32;;;;;;;;;;5029897;28;20042;-86
2024/02/11 07:51:08;;;;;;;17.38;9.65;;;;;;;;;;5031581;28;20029;-86
2024/02/11 07:53:33;;;;;;;16.35;9.15;;;;;;;;;;5020844;28;20025;-85
2024/02/11 07:56:00;;;;;;;19.98;10.02;;;;;;;;;;5029980;28;20143;-85
2024/02/11 07:58:25;;;;;;;20.92;10.73;;;;;;;;;;5021154;28;20029;-85
2024/02/11 08:00:50;;;;;;;18.45;10.05;;;;;;;;;;5034070;28;20036;-86
2024/02/11 08:03:16;;;;;;;21.30;9.80;;;;;;;;;;5028815;28;20099;-85
2024/02/11 08:05:41;;;;;;;21.10;9.55;;;;;;;;;;5034597;28;20037;-86
2024/02/11 08:08:07;;;;;;;19.73;9.30;;;;;;;;;;5032587;28;20048;-85
2024/02/11 08:10:32;;;;;;;19.90;10.32;;;;;;;;;;5031185;28;20411;-86
2024/02/11 08:12:58;;;;;;;21.38;10.13;;;;;;;;;;5031569;28;20030;-85
2024/02/11 08:15:23;;;;;;;18.70;10.57;;;;;;;;;;5033183;28;20374;-85
2024/02/11 08:17:49;;;;;;;22.50;10.52;;;;;;;;;;5024236;28;20079;-85
2024/02/11 08:20:18;;;;;;;18.63;10.68;;;;;;;;;;5017068;28;20459;-86
2024/02/11 08:22:47;;;;;;;19.05;9.85;;;;;;;;;;5023268;28;20036;-85
2024/02/11 08:25:13;;;;;;;18.60;9.88;;;;;;;;;;5036510;28;20034;-84
2024/02/11 08:27:40;;;;;;;18.33;10.32;;;;;;;;;;5037095;28;20020;-86
2024/02/11 08:30:10;;;;;;;17.17;10.00;;;;;;;;;;5037904;28;20123;-85
2024/02/11 08:32:36;;;;;;;20.58;9.98;;;;;;;;;;5030123;28;20060;-87
2024/02/11 08:35:03;;;;;;;14.88;8.93;;;;;;;;;;5030436;28;20026;-85
2024/02/11 08:37:28;;;;;;;16.13;8.93;;;;;;;;;;5032017;28;20064;-85
2024/02/11 08:39:54;;;;;;;18.50;9.32;;;;;;;;;;5027737;28;20057;-85
2024/02/11 08:42:20;;;;;;;14.68;9.00;;;;;;;;;;5038121;28;20060;-86
2024/02/11 08:44:46;;;;;;;18.80;8.60;;;;;;;;;;5036693;28;20473;-84
2024/02/11 08:47:11;;;;;;;17.27;9.00;;;;;;;;;;5036319;28;20056;-86
2024/02/11 08:49:37;;;;;;;16.40;8.20;;;;;;;;;;5036436;28;20460;-86
2024/02/11 08:52:03;;;;;;;17.55;8.38;;;;;;;;;;5024938;28;20478;-85
2024/02/11 08:54:29;;;;;;;16.05;8.55;;;;;;;;;;5030121;28;20057;-86
2024/02/11 08:56:56;;;;;;;18.58;8.95;;;;;;;;;;5033294;28;20017;-85
2024/02/11 08:59:21;;;;;;;19.05;9.40;;;;;;;;;;5032696;28;20048;-82
2024/02/11 09:01:50;;;;;;;13.45;8.38;;;;;;;;;;5041994;28;20369;-82
2024/02/11 09:04:16;;;;;;;19.95;9.32;;;;;;;;;;5033564;28;20320;-82
2024/02/11 09:06:44;;;;;;;13.60;8.00;;;;;;;;;;5034937;28;20075;-82
2024/02/11 09:09:11;;;;;;;19.15;8.45;;;;;;;;;;5030114;28;20025;-82
2024/02/11 09:11:36;;;;;;;15.23;8.20;;;;;;;;;;5032160;28;20052;-82
2024/02/11 09:14:02;;;;;;;14.43;7.95;;;;;;;;;;5043217;28;20480;-82
2024/02/11 09:16:28;;;;;;;17.45;8.55;;;;;;;;;;5035270;28;20034;-82
2024/02/11 09:18:53;;;;;;;17.45;8.40;;;;;;;;;;5035125;28;20410;-82
2024/02/11 09:21:18;;;;;;;17.90;8.48;;;;;;;;;;5035644;28;20022;-82
2024/02/11 09:23:44;;;;;;;16.35;8.27;;;;;;;;;;5035731;28;20032;-82
2024/02/11 09:26:10;;;;;;;14.82;8.23;;;;;;;;;;5034191;28;20025;-82
2024/02/11 09:28:35;;;;;;;18.38;8.90;;;;;;;;;;5033730;28;20052;-82
2024/02/11 09:31:01;;;;;;;19.92;9.15;;;;;;;;;;5037556;28;20031;-80
2024/02/11 09:33:27;;;;;;;16.60;9.07;;;;;;;;;;5037555;28;20429;-82
2024/02/11 09:35:52;;;;;;;21.00;9.30;;;;;;;;;;5033214;28;20029;-82
2024/02/11 09:38:21;;;;;;;18.45;9.40;;;;;;;;;;5036118;28;20027;-82
2024/02/11 09:40:50;;;;;;;17.00;9.45;;;;;;;;;;5033305;28;20033;-82
2024/02/11 09:43:16;;;;;;;17.08;9.82;;;;;;;;;;5037349;28;20029;-81
2024/02/11 09:45:44;;;;;;;17.48;8.98;;;;;;;;;;5037025;28;20029;-82
2024/02/11 09:48:10;;;;;;;19.92;9.57;;;;;;;;;;5039886;28;20034;-82
2024/02/11 09:50:38;;;;;;;23.92;10.02;;;;;;;;;;5035874;28;20052;-83
2024/02/11 09:53:10;;;;;;;21.60;9.73;;;;;;;;;;5017823;28;20084;-82
2024/02/11 09:55:38;;;;;;;23.10;9.77;;;;;;;;;;5033592;28;20025;-82
2024/02/11 09:58:03;;;;;;;17.15;7.88;;;;;;;;;;5019264;28;20028;-82
2024/02/11 10:00:29;;;;;;;19.80;9.02;;;;;;;;;;5034696;28;20029;-82
2024/02/11 10:02:58;;;;;;;18.10;8.25;;;;;;;;;;5033895;28;20022;-82
2024/02/11 10:05:26;;;;;;;23.38;8.35;;;;;;;;;;5037409;28;20041;-82
2024/02/11 10:07:54;;;;;;;17.92;8.50;;;;;;;;;;5032323;28;20437;-82
2024/02/11 10:10:20;;;;;;;15.00;8.20;;;;;;;;;;5031729;28;20156;-82
2024/02/11 10:12:48;;;;;;;17.85;8.32;;;;;;;;;;5030178;28;20564;-82
2024/02/11 10:15:16;;;;;;;16.27;8.43;;;;;;;;;;5025664;28;20038;-82
2024/02/11 10:17:46;;;;;;;16.52;8.60;;;;;;;;;;5019391;28;20032;-82
2024/02/11 10:20:16;;;;;;;16.05;8.10;;;;;;;;;;5033459;28;21166;-83
2024/02/11 10:22:42;;;;;;;16.58;7.93;;;;;;;;;;5026561;28;20018;-83
2024/02/11 10:25:11;;;;;;;16.70;7.57;;;;;;;;;;5035308;28;20060;-82
2024/02/11 10:27:37;;;;;;;16.63;8.05;;;;;;;;;;5035761;28;20060;-82
2024/02/11 10:30:10;;;;;;;21.55;8.10;;;;;;;;;;5035091;28;20029;-82
2024/02/11 10:32:36;;;;;;;15.00;8.02;;;;;;;;;;5032182;28;20396;-82
2024/02/11 10:35:04;;;;;;;20.85;8.50;;;;;;;;;;5030611;28;20032;-82
2024/02/11 10:37:43;;;;;;;21.52;8.18;;;;;;;;;;5011758;28;20030;-82
2024/02/11 10:40:10;;;;;;;17.55;8.18;;;;;;;;;;5028135;28;20033;-82
2024/02/11 10:42:35;;;;;;;16.80;8.05;;;;;;;;;;5027135;28;20057;-82
2024/02/11 10:45:01;;;;;;;18.30;8.55;;;;;;;;;;5010661;28;20721;-82
2024/02/11 10:47:27;;;;;;;15.25;8.05;;;;;;;;;;5011944;28;20029;-82
2024/02/11 10:49:52;;;;;;;22.65;8.93;;;;;;;;;;5022415;28;20075;-82
2024/02/11 10:52:20;;;;;;;22.05;7.85;;;;;;;;;;5006875;28;20052;-88
2024/02/11 10:54:47;;;;;;;22.63;9.13;;;;;;;;;;5013017;28;20041;-83
2024/02/11 10:57:20;;;;;;;18.65;7.95;;;;;;;;;;5029554;28;20029;-82
2024/02/11 10:59:58;;;;;;;19.10;7.95;;;;;;;;;;5033436;28;20472;-82
2024/02/11 11:02:26;;;;;;;16.20;7.72;;;;;;;;;;5032533;28;20037;-82
2024/02/11 11:04:55;;;;;;;17.48;7.93;;;;;;;;;;5029955;28;20029;-82
2024/02/11 11:07:21;;;;;;;14.90;7.65;;;;;;;;;;5023083;28;20025;-83
2024/02/11 11:09:48;;;;;;;16.98;8.55;;;;;;;;;;5013932;28;20053;-83
2024/02/11 11:12:24;;;;;;;13.38;7.70;;;;;;;;;;5030070;28;20057;-83
2024/02/11 11:14:55;;;;;;;21.67;8.60;;;;;;;;;;5039998;28;20022;-83
2024/02/11 11:17:25;;;;;;;17.23;7.65;;;;;;;;;;5011195;28;20028;-82
2024/02/11 11:19:52;;;;;;;16.50;7.70;;;;;;;;;;5028969;28;20037;-86
2024/02/11 11:22:25;;;;;;;14.30;7.57;;;;;;;;;;5014925;28;20020;-86
2024/02/11 11:24:52;;;;;;;19.38;7.80;;;;;;;;;;5030797;28;20100;-86
2024/02/11 11:27:19;;;;;;;17.27;7.93;;;;;;;;;;5016912;28;20033;-86
2024/02/11 11:29:44;;;;;;;18.83;7.65;;;;;;;;;;5025564;28;20032;-86
2024/02/11 11:32:11;;;;;;;18.75;8.07;;;;;;;;;;5026486;28;20033;-86
2024/02/11 11:34:38;;;;;;;17.00;7.65;;;;;;;;;;5007382;28;20045;-85
2024/02/11 11:37:13;;;;;;;18.55;7.95;;;;;;;;;;5007328;28;20508;-86
2024/02/11 11:39:39;;;;;;;14.40;7.63;;;;;;;;;;5023604;28;20430;-85
2024/02/11 11:42:05;;;;;;;17.27;7.75;;;;;;;;;;5027548;28;20087;-86
2024/02/11 11:44:31;;;;;;;25.48;8.70;;;;;;;;;;5021628;28;20443;-86
2024/02/11 11:46:57;;;;;;;20.83;7.85;;;;;;;;;;5025990;28;20026;-87
2024/02/11 11:49:22;;;;;;;16.35;7.53;;;;;;;;;;5019798;28;20448;-85
2024/02/11 11:51:55;;;;;;;14.45;7.68;;;;;;;;;;5015111;28;20013;-86
2024/02/11 11:54:20;;;;;;;22.35;8.93;;;;;;;;;;5021049;28;20029;-86
2024/02/11 11:56:54;;;;;;;15.15;7.72;;;;;;;;;;5024613;28;20086;-85
2024/02/11 11:59:20;;;;;;;17.90;7.70;;;;;;;;;;5018079;28;20033;-86
2024/02/11 12:01:45;;;;;;;19.50;8.43;;;;;;;;;;5019897;28;20400;-86
2024/02/11 12:04:10;;;;;;;19.05;8.10;;;;;;;;;;5018509;28;20029;-86
2024/02/11 12:06:38;;;;;;;15.32;7.82;;;;;;;;;;5004966;28;20025;-85
2024/02/11 12:09:03;;;;;;;16.42;8.63;;;;;;;;;;5016801;28;20167;-85
2024/02/11 12:11:29;;;;;;;21.25;8.88;;;;;;;;;;5001057;28;20029;-85
2024/02/11 12:13:54;;;;;;;16.67;8.20;;;;;;;;;;5015916;28;20025;-86
2024/02/11 12:16:21;;;;;;;15.02;7.80;;;;;;;;;;5016381;28;20026;-86
2024/02/11 12:18:47;;;;;;;21.83;7.97;;;;;;;;;;5004327;28;20513;-86
2024/02/11 12:21:13;;;;;;;14.05;7.85;;;;;;;;;;5018311;28;20038;-86
2024/02/11 12:23:39;;;;;;;16.60;7.55;;;;;;;;;;5015739;28;20040;-86
2024/02/11 12:26:06;;;;;;;17.33;7.70;;;;;;;;;;5014653;28;20033;-86
2024/02/11 12:28:33;;;;;;;17.27;8.05;;;;;;;;;;5020592;28;20120;-86
2024/02/11 12:31:09;;;;;;;17.48;8.23;;;;;;;;;;5017979;28;20033;-83
2024/02/11 12:33:38;;;;;;;18.20;8.27;;;;;;;;;;5015518;28;20029;-83
2024/02/11 12:36:11;;;;;;;17.02;8.35;;;;;;;;;;5012946;28;20041;-83
2024/02/11 12:38:50;;;;;;;16.45;8.18;;;;;;;;;;5014461;28;20033;-82
2024/02/11 12:41:16;;;;;;;18.73;8.10;;;;;;;;;;5016245;28;20753;-83
2024/02/11 12:43:43;;;;;;;15.18;7.25;;;;;;;;;;5015684;28;20047;-83
2024/02/11 12:46:09;;;;;;;21.50;7.50;;;;;;;;;;5014677;28;20044;-82
2024/02/11 12:48:37;;;;;;;17.65;7.65;;;;;;;;;;5014546;28;20021;-83
2024/02/11 12:51:04;;;;;;;16.90;6.97;;;;;;;;;;5015893;28;20128;-83
2024/02/11 12:53:29;;;;;;;17.08;6.90;;;;;;;;;;5018455;28;20033;-83
2024/02/11 12:55:56;;;;;;;18.75;7.43;;;;;;;;;;5002100;28;20164;-83
2024/02/11 12:58:22;;;;;;;14.43;7.25;;;;;;;;;;5014367;28;20101;-83
2024/02/11 13:00:47;;;;;;;20.25;6.93;;;;;;;;;;5022101;28;20413;-83
2024/02/11 13:03:13;;;;;;;12.98;6.95;;;;;;;;;;5021277;28;20044;-82
2024/02/11 13:05:39;;;;;;;14.40;6.93;;;;;;;;;;5017937;28;20441;-83
2024/02/11 13:08:05;;;;;;;17.88;6.88;;;;;;;;;;5018814;28;20044;-82
2024/02/11 13:10:30;;;;;;;12.80;6.65;;;;;;;;;;5026648;28;20022;-82
2024/02/11 13:12:56;;;;;;;15.68;6.82;;;;;;;;;;5024785;28;20108;-82
2024/02/11 13:15:21;;;;;;;13.88;6.78;;;;;;;;;;5023216;28;20472;-82
2024/02/11 13:17:47;;;;;;;13.32;6.03;;;;;;;;;;5024209;28;20104;-82
2024/02/11 13:20:13;;;;;;;12.70;6.05;;;;;;;;;;5030115;28;20373;-82
2024/02/11 13:22:39;;;;;;;13.40;6.30;;;;;;;;;;5029684;28;20049;-83
2024/02/11 13:25:08;;;;;;;12.23;6.05;;;;;;;;;;5031555;28;20033;-82
2024/02/11 13:27:33;;;;;;;10.30;6.03;;;;;;;;;;5014721;28;20021;-82
2024/02/11 13:29:59;;;;;;;14.63;6.75;;;;;;;;;;5027670;28;20025;-82
2024/02/11 13:32:25;;;;;;;17.20;6.43;;;;;;;;;;5028703;28;20075;-82
2024/02/11 13:34:53;;;;;;;14.20;6.28;;;;;;;;;;5023959;28;20412;-82
2024/02/11 13:37:19;;;;;;;15.18;6.55;;;;;;;;;;5026376;28;20566;-82
2024/02/11 13:39:46;;;;;;;13.60;6.40;;;;;;;;;;5032942;28;20037;-82
2024/02/11 13:42:12;;;;;;;15.13;6.68;;;;;;;;;;5030830;28;20110;-82
2024/02/11 13:44:38;;;;;;;15.02;6.63;;;;;;;;;;5026944;28;20071;-82
2024/02/11 13:47:06;;;;;;;14.43;6.10;;;;;;;;;;5007918;28;20042;-82
2024/02/11 13:49:33;;;;;;;10.40;5.28;;;;;;;;;;5028352;28;20346;-83
2024/02/11 13:51:58;;;;;;;11.25;5.57;;;;;;;;;;5037449;28;20071;-83
2024/02/11 13:54:24;;;;;;;9.70;5.20;;;;;;;;;;5024243;28;20034;-83
2024/02/11 13:56:49;;;;;;;12.45;5.90;;;;;;;;;;5024965;28;20373;-82
2024/02/11 13:59:15;;;;;;;11.20;5.32;;;;;;;;;;5021985;28;21597;-82
2024/02/11 14:01:41;;;;;;;13.38;5.68;;;;;;;;;;5026295;28;20029;-81
2024/02/11 14:04:08;;;;;;;13.18;5.28;;;;;;;;;;5019631;28;20030;-83
2024/02/11 14:06:34;;;;;;;8.95;5.57;;;;;;;;;;5027275;28;20053;-83
2024/02/11 14:09:00;;;;;;;12.05;5.40;;;;;;;;;;5021386;28;20381;-83
2024/02/11 14:11:25;;;;;;;12.90;5.25;;;;;;;;;;5026382;28;20021;-83
2024/02/11 14:13:51;;;;;;;10.88;5.45;;;;;;;;;;5026200;28;20026;-83
2024/02/11 14:16:17;;;;;;;10.55;5.43;;;;;;;;;;5025926;28;20027;-82
2024/02/11 14:18:43;;;;;;;12.27;5.10;;;;;;;;;;5025803;28;20036;-83
2024/02/11 14:21:09;;;;;;;9.63;5.28;;;;;;;;;;5029805;28;20352;-83